Amy B — WDI7307 — position and weather

sailwx.info

Track history (hours):
 
Tides and Currents Weather Stations Pressure Air Temp Water Temp Dewpoint Dewpoint Depression Visibility Wind Speed Wind Dir Waves Ship Positions

Amy B

Owner: WCP, Inc, Wilsonville, OR. More information available from US FCC via Universal Licensing System and Coast Guard Vessel Documentation Center.

Last reported at 2018-Aug-13 02:52 UTC. Time now 2018-Aug-14 23:41 UTC.
Position N 45°48' W 122°51'.

Length 21 m; draft 2.5 m.

Type: Towing. MMSI: 367727410.

Date/timePositionNaut miles runAvg speedWind from/ knotsBaromVisibWave heightAir tempDewpointWater temp
2018-Aug-13 02:52N 45°48' W 122°51'1 3.7
2018-Aug-13 02:31N 45°49' W 122°50'1 1.8
2018-Aug-13 01:42N 45°49' W 122°48'3 7.4
2018-Aug-13 01:18N 45°46' W 122°46'2 7.5
2018-Aug-13 01:01N 45°44' W 122°46'4 7.9
2018-Aug-13 00:30N 45°40' W 122°46'3 6.9
2018-Aug-13 00:00N 45°36' W 122°47'4 7.5
2018-Aug-12 23:31N 45°34' W 122°44'0 0.0
2018-Aug-12 22:57N 45°34' W 122°44'0 0.0
2018-Aug-12 22:31N 45°34' W 122°44'0 0.0
2018-Aug-12 21:58N 45°34' W 122°44'0 0.0
2018-Aug-12 21:31N 45°34' W 122°44'0 0.0
2018-Aug-12 20:57N 45°34' W 122°44'0 0.0
2018-Aug-12 20:31N 45°34' W 122°44'0 0.0
2018-Aug-12 19:58N 45°34' W 122°44'0 0.0
2018-Aug-12 19:28N 45°34' W 122°44'0 0.1
2018-Aug-12 19:00N 45°34' W 122°44'2 3.8
2018-Aug-12 18:30N 45°35' W 122°45'3 6.1
2018-Aug-12 18:00N 45°38' W 122°48'3 5.8
2018-Aug-12 17:30N 45°40' W 122°46'3 5.6
2018-Aug-12 17:00N 45°43' W 122°46'3 5.7
2018-Aug-12 16:30N 45°46' W 122°46'3 5.8
2018-Aug-12 16:00N 45°49' W 122°47'3 5.5
2018-Aug-12 15:30N 45°52' W 122°47'3 6.6
2018-Aug-12 15:00N 45°49' W 122°50'1 2.6
2018-Aug-12 14:30N 45°48' W 122°51'0 0.1
2018-Aug-12 14:00N 45°48' W 122°51'0 0.0
2018-Aug-12 13:24N 45°48' W 122°51'0 0.0
2018-Aug-12 13:00N 45°48' W 122°51'0 0.0
2018-Aug-12 12:30N 45°48' W 122°51'0 0.0
2018-Aug-12 12:00N 45°48' W 122°51'0 0.0
2018-Aug-12 11:30N 45°48' W 122°51'0 0.0
2018-Aug-12 11:00N 45°48' W 122°51'0 0.0
2018-Aug-12 10:30N 45°48' W 122°51'0 0.0
2018-Aug-12 09:57N 45°48' W 122°51'0 0.0
2018-Aug-12 09:30N 45°48' W 122°51'0 0.0
2018-Aug-12 08:57N 45°48' W 122°51'0 0.0
2018-Aug-12 08:30N 45°48' W 122°51'0 0.0
2018-Aug-12 08:00N 45°48' W 122°51'0 0.0
2018-Aug-12 07:27N 45°48' W 122°51'0 0.0
2018-Aug-12 06:57N 45°48' W 122°51'0 0.0
2018-Aug-12 06:29N 45°48' W 122°51'1 2.0
2018-Aug-12 06:00N 45°48' W 122°50'3 6.4
2018-Aug-12 05:30N 45°51' W 122°48'4 6.9
2018-Aug-12 04:56N 45°47' W 122°47'4 9.4
2018-Aug-12 04:28N 45°43' W 122°46'4 8.9
2018-Aug-12 04:00N 45°39' W 122°45'1 1.6
2018-Aug-12 03:27N 45°39' W 122°44'0 0.0
2018-Aug-12 03:00N 45°39' W 122°44'0 0.0
2018-Aug-12 02:30N 45°39' W 122°44'0 0.0
2018-Aug-12 01:03N 45°39' W 122°44'0 0.0
2018-Aug-12 01:00N 45°39' W 122°44'0 0.0
2018-Aug-12 00:12N 45°39' W 122°44'0 0.0
2018-Aug-12 00:00N 45°39' W 122°44'2 3.8
2018-Aug-11 23:30N 45°40' W 122°46'4 6.8
2018-Aug-11 22:56N 45°44' W 122°46'3 6.5
2018-Aug-11 22:30N 45°46' W 122°46'3 6.3
2018-Aug-11 21:59N 45°50' W 122°48'1 3.1
2018-Aug-11 21:30N 45°51' W 122°48'3 5.8
2018-Aug-11 21:00N 45°48' W 122°49'1 2.0
2018-Aug-11 20:25N 45°48' W 122°51'0 0.1
2018-Aug-11 19:39N 45°48' W 122°51'0 0.0
2018-Aug-11 19:27N 45°48' W 122°51'0 0.0
2018-Aug-11 18:48N 45°48' W 122°51'0 0.0
2018-Aug-11 18:28N 45°48' W 122°51'0 0.0
2018-Aug-11 18:01N 45°48' W 122°51'0 0.3
2018-Aug-11 17:11N 45°48' W 122°50'1 5.1
2018-Aug-11 17:00N 45°48' W 122°49'4 5.9
2018-Aug-11 16:25N 45°52' W 122°47'4 9.7
2018-Aug-11 16:00N 45°48' W 122°47'5 9.7
2018-Aug-11 15:30N 45°43' W 122°46'4 8.9
2018-Aug-11 15:00N 45°38' W 122°47'4 7.5
2018-Aug-11 14:30N 45°35' W 122°45'2 3.2
2018-Aug-11 13:58N 45°34' W 122°44'0 0.0
2018-Aug-11 13:22N 45°34' W 122°44'0 0.0
2018-Aug-11 12:58N 45°34' W 122°44'0 0.0
2018-Aug-11 12:19N 45°34' W 122°44'0 0.0
2018-Aug-11 11:55N 45°34' W 122°44'0 0.0
2018-Aug-11 11:25N 45°34' W 122°44'0 0.0
2018-Aug-11 10:58N 45°34' W 122°44'0 0.0
2018-Aug-11 10:22N 45°34' W 122°44'0 0.0
2018-Aug-11 09:58N 45°34' W 122°44'0 0.0
2018-Aug-11 09:22N 45°34' W 122°44'0 0.0
2018-Aug-11 08:58N 45°34' W 122°44'0 0.8
2018-Aug-11 08:30N 45°34' W 122°44'3 6.8
2018-Aug-11 08:01N 45°36' W 122°47'3 6.2
2018-Aug-11 07:30N 45°39' W 122°46'3 5.5
2018-Aug-11 06:59N 45°42' W 122°46'3 5.6
2018-Aug-11 06:30N 45°45' W 122°46'3 5.5
2018-Aug-11 06:00N 45°48' W 122°47'3 5.2
2018-Aug-11 05:30N 45°50' W 122°47'1 1.5
2018-Aug-11 05:01N 45°50' W 122°48'3 5.6
2018-Aug-11 04:30N 45°48' W 122°50'1 1.3
2018-Aug-11 03:56N 45°48' W 122°51'0 0.2
2018-Aug-11 03:28N 45°48' W 122°51'0 0.0
2018-Aug-11 02:55N 45°48' W 122°51'0 0.0
2018-Aug-11 02:28N 45°48' W 122°51'0 0.0
2018-Aug-11 01:52N 45°48' W 122°51'0 0.0
2018-Aug-11 01:22N 45°48' W 122°51'0 0.0
2018-Aug-11 00:58N 45°48' W 122°51'0 0.1
2018-Aug-11 00:28N 45°48' W 122°51'2 3.4
2018-Aug-11 00:00N 45°49' W 122°50'2 2.5
2018-Aug-10 23:02N 45°47' W 122°47'0 8.1
2018-Aug-10 23:00N 45°47' W 122°47'6 8.3
2018-Aug-10 22:20N 45°42' W 122°46'3 8.8
2018-Aug-10 22:00N 45°39' W 122°45'1 1.1
2018-Aug-10 21:06N 45°39' W 122°44'0 0.0
2018-Aug-10 20:48N 45°39' W 122°44'0 0.0
2018-Aug-10 20:27N 45°39' W 122°44'0 0.0
2018-Aug-10 20:00N 45°39' W 122°44'0 0.0
2018-Aug-10 19:24N 45°39' W 122°44'0 0.0
2018-Aug-10 18:54N 45°39' W 122°44'0 0.0
2018-Aug-10 18:27N 45°39' W 122°44'1 1.3
2018-Aug-10 17:55N 45°39' W 122°45'3 5.9
2018-Aug-10 17:28N 45°41' W 122°46'3 6.1
2018-Aug-10 16:57N 45°44' W 122°46'3 6.1
2018-Aug-10 16:31N 45°47' W 122°47'3 5.8
2018-Aug-10 16:00N 45°50' W 122°47'1 2.1
2018-Aug-10 15:30N 45°51' W 122°48'3 5.1
2018-Aug-10 15:00N 45°48' W 122°49'1 2.2
2018-Aug-10 14:29N 45°48' W 122°51'0 0.1
2018-Aug-10 13:53N 45°48' W 122°51'0 0.0
2018-Aug-10 13:29N 45°48' W 122°51'0 0.0
2018-Aug-10 12:53N 45°48' W 122°51'0 0.0
2018-Aug-10 12:23N 45°48' W 122°51'0 0.0
2018-Aug-10 11:59N 45°48' W 122°51'0 0.0
2018-Aug-10 11:29N 45°48' W 122°51'0 0.0
2018-Aug-10 10:56N 45°48' W 122°51'0 0.0
2018-Aug-10 10:26N 45°48' W 122°51'0 0.0
2018-Aug-10 09:59N 45°48' W 122°51'0 0.0
2018-Aug-10 09:26N 45°48' W 122°51'0 0.0
2018-Aug-10 08:59N 45°48' W 122°51'0 0.0
2018-Aug-10 08:29N 45°48' W 122°51'0 0.0
2018-Aug-10 07:59N 45°48' W 122°51'0 0.0
2018-Aug-10 07:05N 45°48' W 122°51'0 0.0
2018-Aug-10 06:47N 45°48' W 122°51'0 0.0
2018-Aug-10 06:26N 45°48' W 122°51'1 1.3
2018-Aug-10 06:00N 45°48' W 122°50'2 4.9
2018-Aug-10 05:30N 45°50' W 122°48'1 1.5
2018-Aug-10 05:00N 45°50' W 122°47'5 9.2
2018-Aug-10 04:30N 45°45' W 122°46'6 9.2
2018-Aug-10 03:53N 45°40' W 122°46'2 5.0
2018-Aug-10 03:30N 45°39' W 122°44'0 0.0
2018-Aug-10 02:48N 45°39' W 122°44'0 0.0
2018-Aug-10 02:27N 45°39' W 122°44'0 0.0
2018-Aug-10 02:00N 45°39' W 122°44'0 0.0
2018-Aug-10 01:30N 45°39' W 122°44'0 0.0
2018-Aug-10 00:54N 45°39' W 122°44'0 0.0
2018-Aug-10 00:30N 45°39' W 122°44'0 0.0
2018-Aug-09 23:51N 45°39' W 122°44'0 0.0
2018-Aug-09 23:28N 45°39' W 122°44'2 5.5
2018-Aug-09 23:01N 45°40' W 122°46'4 7.4
2018-Aug-09 22:30N 45°44' W 122°46'4 7.2
2018-Aug-09 22:00N 45°48' W 122°47'4 7.1
2018-Aug-09 21:29N 45°51' W 122°47'1 1.1
2018-Aug-09 20:59N 45°51' W 122°48'3 6.1
2018-Aug-09 20:30N 45°48' W 122°49'1 2.0
2018-Aug-09 19:59N 45°48' W 122°51'0 0.2
2018-Aug-09 19:28N 45°48' W 122°51'0 0.0
2018-Aug-09 18:55N 45°48' W 122°51'0 0.0
2018-Aug-09 18:25N 45°48' W 122°51'0 0.0
2018-Aug-09 17:49N 45°48' W 122°51'0 0.0
2018-Aug-09 17:22N 45°48' W 122°51'0 0.0
2018-Aug-09 16:58N 45°48' W 122°51'0 0.0
2018-Aug-09 16:28N 45°48' W 122°51'0 0.0
2018-Aug-09 15:52N 45°48' W 122°51'0 0.0
2018-Aug-09 15:28N 45°48' W 122°51'0 0.0
2018-Aug-09 14:50N 45°48' W 122°51'0 0.1
2018-Aug-09 14:23N 45°48' W 122°51'1 3.1
2018-Aug-09 14:00N 45°48' W 122°49'3 6.4
2018-Aug-09 13:31N 45°51' W 122°48'4 7.6
2018-Aug-09 13:00N 45°48' W 122°47'4 9.0
2018-Aug-09 12:31N 45°43' W 122°46'4 8.5
2018-Aug-09 12:00N 45°39' W 122°45'1 2.1
2018-Aug-09 11:30N 45°39' W 122°44'0 0.0
2018-Aug-09 10:57N 45°39' W 122°44'0 0.0
2018-Aug-09 10:24N 45°39' W 122°44'0 0.0
2018-Aug-09 09:57N 45°39' W 122°44'0 0.0
2018-Aug-09 09:30N 45°39' W 122°44'0 0.0
2018-Aug-09 08:57N 45°39' W 122°44'0 0.0
2018-Aug-09 08:30N 45°39' W 122°44'0 0.0
2018-Aug-09 08:00N 45°39' W 122°44'0 0.0
2018-Aug-09 07:27N 45°39' W 122°44'0 0.0
2018-Aug-09 06:57N 45°39' W 122°44'0 0.0
2018-Aug-09 06:30N 45°39' W 122°44'2 4.8
2018-Aug-09 06:00N 45°40' W 122°46'3 6.4
2018-Aug-09 05:30N 45°43' W 122°46'4 6.2
2018-Aug-09 04:50N 45°48' W 122°47'2 6.0
2018-Aug-09 04:30N 45°50' W 122°48'3 5.9
2018-Aug-09 04:00N 45°52' W 122°48'3 5.1
2018-Aug-09 03:30N 45°50' W 122°49'2 3.7
2018-Aug-09 03:01N 45°48' W 122°50'1 1.5
2018-Aug-09 02:16N 45°48' W 122°51'1 2.9
2018-Aug-09 01:47N 45°49' W 122°50'2 6.9
2018-Aug-09 01:30N 45°50' W 122°48'2 3.2
2018-Aug-09 01:00N 45°49' W 122°48'5 9.3
2018-Aug-09 00:30N 45°44' W 122°46'5 9.1
2018-Aug-09 00:00N 45°40' W 122°46'2 3.3
2018-Aug-08 23:22N 45°39' W 122°44'0 0.0
2018-Aug-08 22:55N 45°39' W 122°44'0 0.0
2018-Aug-08 22:25N 45°39' W 122°44'0 0.0
2018-Aug-08 21:58N 45°39' W 122°44'0 0.0
2018-Aug-08 21:04N 45°39' W 122°44'0 0.0
2018-Aug-08 20:52N 45°39' W 122°44'0 0.0
2018-Aug-08 20:28N 45°39' W 122°44'0 0.0
2018-Aug-08 19:58N 45°39' W 122°44'0 0.1
2018-Aug-08 19:30N 45°39' W 122°43'3 5.4
2018-Aug-08 19:00N 45°41' W 122°46'4 6.6
2018-Aug-08 18:27N 45°44' W 122°46'3 6.5
2018-Aug-08 18:00N 45°47' W 122°47'3 6.0
2018-Aug-08 17:30N 45°50' W 122°47'3 5.5
2018-Aug-08 17:00N 45°53' W 122°48'3 6.7
2018-Aug-08 16:30N 45°49' W 122°49'2 4.1
2018-Aug-08 16:00N 45°48' W 122°50'0 0.5
2018-Aug-08 15:30N 45°48' W 122°51'0 0.2
2018-Aug-08 15:00N 45°48' W 122°51'2 4.4
2018-Aug-08 14:30N 45°49' W 122°49'2 3.1
2018-Aug-08 14:00N 45°50' W 122°47'5 9.3
2018-Aug-08 13:30N 45°46' W 122°46'5 9.4
2018-Aug-08 13:00N 45°41' W 122°46'4 8.0
2018-Aug-08 12:30N 45°37' W 122°47'4 7.9
2018-Aug-08 12:00N 45°34' W 122°44'0 0.5
2018-Aug-08 11:30N 45°34' W 122°44'0 0.0
2018-Aug-08 10:57N 45°34' W 122°44'0 0.0
2018-Aug-08 10:18N 45°34' W 122°44'0 0.0
2018-Aug-08 10:00N 45°34' W 122°44'0 0.0
2018-Aug-08 09:29N 45°34' W 122°44'0 0.0
2018-Aug-08 09:00N 45°34' W 122°44'0 0.0
2018-Aug-08 08:24N 45°34' W 122°44'0 0.0
2018-Aug-08 07:54N 45°34' W 122°44'0 0.0
2018-Aug-08 07:30N 45°34' W 122°44'0 0.0
2018-Aug-08 06:48N 45°34' W 122°44'0 0.3
2018-Aug-08 06:27N 45°34' W 122°44'3 6.1
2018-Aug-08 06:00N 45°36' W 122°47'3 6.3
2018-Aug-08 05:30N 45°39' W 122°46'3 5.9
2018-Aug-08 05:00N 45°42' W 122°46'3 5.7
2018-Aug-08 04:31N 45°45' W 122°46'3 5.7
2018-Aug-08 04:01N 45°48' W 122°47'3 5.4
2018-Aug-08 03:30N 45°50' W 122°47'2 5.0
2018-Aug-08 03:00N 45°53' W 122°48'3 6.3
2018-Aug-08 02:30N 45°50' W 122°49'2 4.0
2018-Aug-08 01:58N 45°48' W 122°50'0 0.6
2018-Aug-08 01:30N 45°48' W 122°51'0 0.0
2018-Aug-08 01:00N 45°48' W 122°51'0 0.1
2018-Aug-08 00:30N 45°48' W 122°51'0 0.0
2018-Aug-07 23:51N 45°48' W 122°51'0 0.0
2018-Aug-07 23:30N 45°48' W 122°51'0 0.0
2018-Aug-07 23:00N 45°48' W 122°51'0 0.0
2018-Aug-07 22:27N 45°48' W 122°51'0 0.0
2018-Aug-07 22:00N 45°48' W 122°51'0 0.0
2018-Aug-07 21:30N 45°48' W 122°51'0 0.0
2018-Aug-07 21:00N 45°48' W 122°51'0 0.0
2018-Aug-07 20:18N 45°48' W 122°51'0 0.0
2018-Aug-07 20:00N 45°48' W 122°51'0 0.1
2018-Aug-07 19:30N 45°48' W 122°51'1 2.2
2018-Aug-07 18:58N 45°48' W 122°49'0 0.3
2018-Aug-07 18:30N 45°48' W 122°49'3 6.7
2018-Aug-07 18:00N 45°52' W 122°48'2 3.3
2018-Aug-07 17:30N 45°50' W 122°47'5 9.6
2018-Aug-07 17:00N 45°45' W 122°46'5 9.9
2018-Aug-07 16:30N 45°40' W 122°46'4 7.9
2018-Aug-07 16:00N 45°36' W 122°47'3 6.8
2018-Aug-07 15:30N 45°34' W 122°44'0 0.1
2018-Aug-07 14:49N 45°34' W 122°44'0 0.0
2018-Aug-07 14:30N 45°34' W 122°44'0 0.0
2018-Aug-07 13:58N 45°34' W 122°44'0 0.0
2018-Aug-07 13:28N 45°34' W 122°44'0 0.0
2018-Aug-07 12:55N 45°34' W 122°44'0 0.0
2018-Aug-07 12:25N 45°34' W 122°44'0 0.0
2018-Aug-07 11:58N 45°34' W 122°44'0 0.0
2018-Aug-07 11:28N 45°34' W 122°44'0 0.0
2018-Aug-07 10:55N 45°34' W 122°44'0 0.0
2018-Aug-07 10:28N 45°34' W 122°44'0 0.0
2018-Aug-07 09:58N 45°34' W 122°44'0 0.4
2018-Aug-07 09:30N 45°34' W 122°44'3 6.0
2018-Aug-07 09:00N 45°36' W 122°47'3 6.4
2018-Aug-07 08:30N 45°39' W 122°46'3 6.6
2018-Aug-07 08:00N 45°43' W 122°46'4 7.1
2018-Aug-07 07:30N 45°46' W 122°46'4 7.2
2018-Aug-07 06:59N 45°50' W 122°47'1 2.0
2018-Aug-07 06:30N 45°51' W 122°48'3 5.1
2018-Aug-07 06:00N 45°48' W 122°50'1 2.0
2018-Aug-07 05:28N 45°48' W 122°51'0 0.1
2018-Aug-07 04:49N 45°48' W 122°51'0 0.0
2018-Aug-07 04:25N 45°48' W 122°51'0 0.0
2018-Aug-07 03:52N 45°48' W 122°51'0 0.0
2018-Aug-07 03:28N 45°48' W 122°51'0 0.0
2018-Aug-07 02:49N 45°48' W 122°51'0 0.0
2018-Aug-07 02:28N 45°48' W 122°51'0 0.1
2018-Aug-07 01:58N 45°48' W 122°51'1 2.9
2018-Aug-07 01:30N 45°49' W 122°50'4 6.1
2018-Aug-07 00:50N 45°53' W 122°48'3 9.4
2018-Aug-07 00:30N 45°50' W 122°48'5 9.7
2018-Aug-07 00:01N 45°45' W 122°46'612.7
2018-Aug-06 23:30N 45°39' W 122°44'0 0.1
2018-Aug-06 22:54N 45°39' W 122°44'0 0.0
2018-Aug-06 22:27N 45°39' W 122°44'0 0.0
2018-Aug-06 22:00N 45°39' W 122°44'0 0.0
2018-Aug-06 21:30N 45°39' W 122°44'0 0.0
2018-Aug-06 20:51N 45°39' W 122°44'0 0.0
2018-Aug-06 20:27N 45°39' W 122°44'0 0.0
2018-Aug-06 19:57N 45°39' W 122°44'0 0.0
2018-Aug-06 19:16N 45°39' W 122°44'0 0.0
2018-Aug-06 18:57N 45°39' W 122°44'0 0.0
2018-Aug-06 18:29N 45°39' W 122°44'2 3.3
2018-Aug-06 18:00N 45°39' W 122°46'3 6.2
2018-Aug-06 17:30N 45°43' W 122°46'7 6.0
2018-Aug-06 16:20N 45°50' W 122°48'3 5.8
2018-Aug-06 15:52N 45°52' W 122°47'1 3.0
2018-Aug-06 15:30N 45°51' W 122°48'3 6.0
2018-Aug-06 15:00N 45°48' W 122°49'1 2.3
2018-Aug-06 14:29N 45°48' W 122°51'0 0.0
2018-Aug-06 13:55N 45°48' W 122°51'0 0.1
2018-Aug-06 13:25N 45°48' W 122°51'0 0.0
2018-Aug-06 02:23N 45°48' W 122°51'0 0.0
2018-Aug-06 01:56N 45°48' W 122°51'0 0.1
2018-Aug-06 01:29N 45°48' W 122°51'1 2.8
2018-Aug-06 01:00N 45°49' W 122°50'3 6.3
2018-Aug-06 00:29N 45°52' W 122°48'1 2.5
2018-Aug-06 00:00N 45°51' W 122°47'4 8.5
2018-Aug-05 23:31N 45°46' W 122°46'5 8.3
2018-Aug-05 22:56N 45°42' W 122°46'3 6.3
2018-Aug-05 22:30N 45°39' W 122°45'4 8.6
2018-Aug-05 22:00N 45°37' W 122°40'4 8.8
2018-Aug-05 21:31N 45°36' W 122°34'5 8.8
2018-Aug-05 20:58N 45°34' W 122°27'1 0.4
2018-Aug-05 19:28N 45°34' W 122°27'0 0.0
2018-Aug-05 18:34N 45°34' W 122°27'0 0.0
2018-Aug-05 18:28N 45°34' W 122°27'0 0.0
2018-Aug-05 17:58N 45°34' W 122°27'0 0.0
2018-Aug-05 17:28N 45°34' W 122°27'0 0.0
2018-Aug-05 16:58N 45°34' W 122°27'0 0.6
2018-Aug-05 16:30N 45°34' W 122°27'2 3.5
2018-Aug-05 16:00N 45°35' W 122°29'2 3.7
2018-Aug-05 15:30N 45°35' W 122°32'2 3.6
2018-Aug-05 15:00N 45°36' W 122°34'2 3.9
2018-Aug-05 14:30N 45°36' W 122°37'4 4.0
2018-Aug-05 13:30N 45°38' W 122°42'2 4.7
2018-Aug-05 13:00N 45°39' W 122°45'2 4.6
2018-Aug-05 12:30N 45°41' W 122°46'2 4.7
2018-Aug-05 12:00N 45°43' W 122°46'2 4.7
2018-Aug-05 11:31N 45°46' W 122°46'2 4.7
2018-Aug-05 11:00N 45°48' W 122°47'2 4.5
2018-Aug-05 10:30N 45°50' W 122°47'2 4.5
2018-Aug-05 10:00N 45°52' W 122°47'2 3.9
2018-Aug-05 09:31N 45°50' W 122°48'3 5.1
2018-Aug-05 09:00N 45°48' W 122°50'1 1.9
2018-Aug-05 08:30N 45°48' W 122°51'0 0.2
2018-Aug-05 07:54N 45°48' W 122°51'0 0.0
2018-Aug-05 07:24N 45°48' W 122°51'0 0.0
2018-Aug-05 06:57N 45°48' W 122°51'0 0.0
2018-Aug-05 06:24N 45°48' W 122°51'0 0.0
2018-Aug-05 05:54N 45°48' W 122°51'0 0.0
2018-Aug-05 05:09N 45°48' W 122°51'0 0.0
2018-Aug-05 05:00N 45°48' W 122°51'0 0.4
2018-Aug-05 04:30N 45°48' W 122°50'4 5.6
2018-Aug-05 03:51N 45°51' W 122°48'1 2.4
2018-Aug-05 03:30N 45°50' W 122°47'4 6.8
2018-Aug-05 02:53N 45°46' W 122°46'4 7.6
2018-Aug-05 02:19N 45°42' W 122°46'2 7.8
2018-Aug-05 02:00N 45°39' W 122°46'3 6.6
2018-Aug-05 01:30N 45°36' W 122°47'3 5.9
2018-Aug-05 00:59N 45°34' W 122°44'0 0.1
2018-Aug-05 00:25N 45°34' W 122°44'0 0.0
2018-Aug-04 23:49N 45°34' W 122°44'0 0.0
2018-Aug-04 23:28N 45°34' W 122°44'0 0.0
2018-Aug-04 22:52N 45°34' W 122°44'0 0.0
2018-Aug-04 22:28N 45°34' W 122°44'0 0.0
2018-Aug-04 21:55N 45°34' W 122°44'0 0.0
2018-Aug-04 21:25N 45°34' W 122°44'0 0.0
2018-Aug-04 20:55N 45°34' W 122°44'0 0.0
2018-Aug-04 20:28N 45°34' W 122°44'0 0.3
2018-Aug-04 20:00N 45°34' W 122°44'3 5.2
2018-Aug-04 19:24N 45°36' W 122°47'2 4.7
2018-Aug-04 18:56N 45°38' W 122°49'2 4.8
2018-Aug-04 18:30N 45°40' W 122°51'2 4.6
2018-Aug-04 18:00N 45°42' W 122°52'2 4.8
2018-Aug-04 17:30N 45°44' W 122°51'2 4.3
2018-Aug-04 16:58N 45°46' W 122°49'2 5.0
2018-Aug-04 16:30N 45°48' W 122°48'2 1.9
2018-Aug-04 15:30N 45°48' W 122°51'0 0.1
2018-Aug-04 14:51N 45°48' W 122°51'0 0.0
2018-Aug-04 14:30N 45°48' W 122°51'0 0.0
2018-Aug-04 14:00N 45°48' W 122°51'0 0.0
2018-Aug-04 13:30N 45°48' W 122°51'0 0.0
2018-Aug-04 12:57N 45°48' W 122°51'0 0.0
2018-Aug-04 12:27N 45°48' W 122°51'0 0.0
2018-Aug-04 11:51N 45°48' W 122°51'0 0.0
2018-Aug-04 11:21N 45°48' W 122°51'0 0.0
2018-Aug-04 10:57N 45°48' W 122°51'0 0.0
2018-Aug-04 10:30N 45°48' W 122°51'0 0.1
2018-Aug-04 09:57N 45°48' W 122°51'1 2.4
2018-Aug-04 09:30N 45°48' W 122°50'4 3.5
2018-Aug-04 08:26N 45°46' W 122°46'1 2.2
2018-Aug-04 08:00N 45°45' W 122°46'4 7.9
2018-Aug-04 07:28N 45°40' W 122°46'4 6.9
2018-Aug-04 06:56N 45°37' W 122°47'3 6.9
2018-Aug-04 06:30N 45°34' W 122°45'1 1.5
2018-Aug-04 05:53N 45°34' W 122°44'0 0.4
2018-Aug-04 05:30N 45°34' W 122°44'0 0.0
2018-Aug-04 05:00N 45°34' W 122°44'0 0.0
2018-Aug-04 04:27N 45°34' W 122°44'0 0.0
2018-Aug-04 03:45N 45°34' W 122°44'0 0.0
2018-Aug-04 03:21N 45°34' W 122°44'0 0.0
2018-Aug-04 02:57N 45°34' W 122°44'0 0.0
2018-Aug-04 02:30N 45°34' W 122°44'0 0.0
2018-Aug-04 01:11N 45°34' W 122°44'0 0.0
2018-Aug-04 00:59N 45°34' W 122°44'0 0.2
2018-Aug-04 00:25N 45°34' W 122°44'2 3.9
2018-Aug-04 00:00N 45°35' W 122°46'3 5.6
2018-Aug-03 23:30N 45°37' W 122°48'3 5.1
2018-Aug-03 23:00N 45°39' W 122°50'2 4.7
2018-Aug-03 22:30N 45°41' W 122°52'2 4.6
2018-Aug-03 22:00N 45°44' W 122°52'2 4.1
2018-Aug-03 21:31N 45°45' W 122°49'2 3.7
2018-Aug-03 21:00N 45°47' W 122°49'2 3.2
2018-Aug-03 20:30N 45°48' W 122°49'1 1.7
2018-Aug-03 19:47N 45°48' W 122°51'0 0.2
2018-Aug-03 19:22N 45°48' W 122°51'0 0.0
2018-Aug-03 18:46N 45°48' W 122°51'0 0.0
2018-Aug-03 18:28N 45°48' W 122°51'0 0.0
2018-Aug-03 17:58N 45°48' W 122°51'0 0.0
2018-Aug-03 17:28N 45°48' W 122°51'0 0.0
2018-Aug-03 16:47N 45°48' W 122°51'0 0.0
2018-Aug-03 16:28N 45°48' W 122°51'0 0.0
2018-Aug-03 15:58N 45°48' W 122°51'1 1.4
2018-Aug-03 15:30N 45°48' W 122°50'3 5.9
2018-Aug-03 15:01N 45°51' W 122°48'2 3.1
2018-Aug-03 14:30N 45°49' W 122°48'4 8.1
2018-Aug-03 14:00N 45°45' W 122°46'4 7.0
2018-Aug-03 13:30N 45°42' W 122°46'3 6.3
2018-Aug-03 13:00N 45°39' W 122°45'4 7.7
2018-Aug-03 12:29N 45°37' W 122°40'3 5.5
2018-Aug-03 12:00N 45°36' W 122°36'5 9.1
2018-Aug-03 11:28N 45°35' W 122°29'2 3.1
2018-Aug-03 10:49N 45°34' W 122°27'0 0.0
2018-Aug-03 10:28N 45°34' W 122°27'0 0.0
2018-Aug-03 09:55N 45°34' W 122°27'0 0.0
2018-Aug-03 09:22N 45°34' W 122°27'0 0.0
2018-Aug-03 08:19N 45°34' W 122°27'0 0.0
2018-Aug-03 07:55N 45°34' W 122°27'0 0.0
2018-Aug-03 07:19N 45°34' W 122°27'0 0.0
2018-Aug-03 06:55N 45°34' W 122°27'0 0.0
2018-Aug-03 06:19N 45°34' W 122°27'0 0.0
2018-Aug-03 05:55N 45°34' W 122°27'0 0.3
2018-Aug-03 05:29N 45°34' W 122°27'2 4.0
2018-Aug-03 04:57N 45°35' W 122°29'2 4.6
2018-Aug-03 04:29N 45°36' W 122°32'2 4.7
2018-Aug-03 04:01N 45°36' W 122°35'2 4.9
2018-Aug-03 03:30N 45°37' W 122°39'2 4.9
2018-Aug-03 03:00N 45°38' W 122°42'  
Track history (hours):
 
Tides and Currents Weather Stations Pressure Air Temp Water Temp Dewpoint Dewpoint Depression Visibility Wind Speed Wind Dir Waves Ship Positions

Amy B

Owner: WCP, Inc, Wilsonville, OR. More information available from US FCC via Universal Licensing System and Coast Guard Vessel Documentation Center.

Last reported at 2018-Aug-13 02:52 UTC. Time now 2018-Aug-14 23:41 UTC.
Position N 45°48' W 122°51'.

Length 21 m; draft 2.5 m.

Type: Towing. MMSI: 367727410.

Date/timePositionNaut miles runAvg speedWind from/ knotsBaromVisibWave heightAir tempDewpointWater temp
2018-Aug-13 02:52N 45°48' W 122°51'1 3.7
2018-Aug-13 02:31N 45°49' W 122°50'1 1.8
2018-Aug-13 01:42N 45°49' W 122°48'3 7.4
2018-Aug-13 01:18N 45°46' W 122°46'2 7.5
2018-Aug-13 01:01N 45°44' W 122°46'4 7.9
2018-Aug-13 00:30N 45°40' W 122°46'3 6.9
2018-Aug-13 00:00N 45°36' W 122°47'4 7.5
2018-Aug-12 23:31N 45°34' W 122°44'0 0.0
2018-Aug-12 22:57N 45°34' W 122°44'0 0.0
2018-Aug-12 22:31N 45°34' W 122°44'0 0.0
2018-Aug-12 21:58N 45°34' W 122°44'0 0.0
2018-Aug-12 21:31N 45°34' W 122°44'0 0.0
2018-Aug-12 20:57N 45°34' W 122°44'0 0.0
2018-Aug-12 20:31N 45°34' W 122°44'0 0.0
2018-Aug-12 19:58N 45°34' W 122°44'0 0.0
2018-Aug-12 19:28N 45°34' W 122°44'0 0.1
2018-Aug-12 19:00N 45°34' W 122°44'2 3.8
2018-Aug-12 18:30N 45°35' W 122°45'3 6.1
2018-Aug-12 18:00N 45°38' W 122°48'3 5.8
2018-Aug-12 17:30N 45°40' W 122°46'3 5.6
2018-Aug-12 17:00N 45°43' W 122°46'3 5.7
2018-Aug-12 16:30N 45°46' W 122°46'3 5.8
2018-Aug-12 16:00N 45°49' W 122°47'3 5.5
2018-Aug-12 15:30N 45°52' W 122°47'3 6.6
2018-Aug-12 15:00N 45°49' W 122°50'1 2.6
2018-Aug-12 14:30N 45°48' W 122°51'0 0.1
2018-Aug-12 14:00N 45°48' W 122°51'0 0.0
2018-Aug-12 13:24N 45°48' W 122°51'0 0.0
2018-Aug-12 13:00N 45°48' W 122°51'0 0.0
2018-Aug-12 12:30N 45°48' W 122°51'0 0.0
2018-Aug-12 12:00N 45°48' W 122°51'0 0.0
2018-Aug-12 11:30N 45°48' W 122°51'0 0.0
2018-Aug-12 11:00N 45°48' W 122°51'0 0.0
2018-Aug-12 10:30N 45°48' W 122°51'0 0.0
2018-Aug-12 09:57N 45°48' W 122°51'0 0.0
2018-Aug-12 09:30N 45°48' W 122°51'0 0.0
2018-Aug-12 08:57N 45°48' W 122°51'0 0.0
2018-Aug-12 08:30N 45°48' W 122°51'0 0.0
2018-Aug-12 08:00N 45°48' W 122°51'0 0.0
2018-Aug-12 07:27N 45°48' W 122°51'0 0.0
2018-Aug-12 06:57N 45°48' W 122°51'0 0.0
2018-Aug-12 06:29N 45°48' W 122°51'1 2.0
2018-Aug-12 06:00N 45°48' W 122°50'3 6.4
2018-Aug-12 05:30N 45°51' W 122°48'4 6.9
2018-Aug-12 04:56N 45°47' W 122°47'4 9.4
2018-Aug-12 04:28N 45°43' W 122°46'4 8.9
2018-Aug-12 04:00N 45°39' W 122°45'1 1.6
2018-Aug-12 03:27N 45°39' W 122°44'0 0.0
2018-Aug-12 03:00N 45°39' W 122°44'0 0.0
2018-Aug-12 02:30N 45°39' W 122°44'0 0.0
2018-Aug-12 01:03N 45°39' W 122°44'0 0.0
2018-Aug-12 01:00N 45°39' W 122°44'0 0.0
2018-Aug-12 00:12N 45°39' W 122°44'0 0.0
2018-Aug-12 00:00N 45°39' W 122°44'2 3.8
2018-Aug-11 23:30N 45°40' W 122°46'4 6.8
2018-Aug-11 22:56N 45°44' W 122°46'3 6.5
2018-Aug-11 22:30N 45°46' W 122°46'3 6.3
2018-Aug-11 21:59N 45°50' W 122°48'1 3.1
2018-Aug-11 21:30N 45°51' W 122°48'3 5.8
2018-Aug-11 21:00N 45°48' W 122°49'1 2.0
2018-Aug-11 20:25N 45°48' W 122°51'0 0.1
2018-Aug-11 19:39N 45°48' W 122°51'0 0.0
2018-Aug-11 19:27N 45°48' W 122°51'0 0.0
2018-Aug-11 18:48N 45°48' W 122°51'0 0.0
2018-Aug-11 18:28N 45°48' W 122°51'0 0.0
2018-Aug-11 18:01N 45°48' W 122°51'0 0.3
2018-Aug-11 17:11N 45°48' W 122°50'1 5.1
2018-Aug-11 17:00N 45°48' W 122°49'4 5.9
2018-Aug-11 16:25N 45°52' W 122°47'4 9.7
2018-Aug-11 16:00N 45°48' W 122°47'5 9.7
2018-Aug-11 15:30N 45°43' W 122°46'4 8.9
2018-Aug-11 15:00N 45°38' W 122°47'4 7.5
2018-Aug-11 14:30N 45°35' W 122°45'2 3.2
2018-Aug-11 13:58N 45°34' W 122°44'0 0.0
2018-Aug-11 13:22N 45°34' W 122°44'0 0.0
2018-Aug-11 12:58N 45°34' W 122°44'0 0.0
2018-Aug-11 12:19N 45°34' W 122°44'0 0.0
2018-Aug-11 11:55N 45°34' W 122°44'0 0.0
2018-Aug-11 11:25N 45°34' W 122°44'0 0.0
2018-Aug-11 10:58N 45°34' W 122°44'0 0.0
2018-Aug-11 10:22N 45°34' W 122°44'0 0.0
2018-Aug-11 09:58N 45°34' W 122°44'0 0.0
2018-Aug-11 09:22N 45°34' W 122°44'0 0.0
2018-Aug-11 08:58N 45°34' W 122°44'0 0.8
2018-Aug-11 08:30N 45°34' W 122°44'3 6.8
2018-Aug-11 08:01N 45°36' W 122°47'3 6.2
2018-Aug-11 07:30N 45°39' W 122°46'3 5.5
2018-Aug-11 06:59N 45°42' W 122°46'3 5.6
2018-Aug-11 06:30N 45°45' W 122°46'3 5.5
2018-Aug-11 06:00N 45°48' W 122°47'3 5.2
2018-Aug-11 05:30N 45°50' W 122°47'1 1.5
2018-Aug-11 05:01N 45°50' W 122°48'3 5.6
2018-Aug-11 04:30N 45°48' W 122°50'1 1.3
2018-Aug-11 03:56N 45°48' W 122°51'0 0.2
2018-Aug-11 03:28N 45°48' W 122°51'0 0.0
2018-Aug-11 02:55N 45°48' W 122°51'0 0.0
2018-Aug-11 02:28N 45°48' W 122°51'0 0.0
2018-Aug-11 01:52N 45°48' W 122°51'0 0.0
2018-Aug-11 01:22N 45°48' W 122°51'0 0.0
2018-Aug-11 00:58N 45°48' W 122°51'0 0.1
2018-Aug-11 00:28N 45°48' W 122°51'2 3.4
2018-Aug-11 00:00N 45°49' W 122°50'2 2.5
2018-Aug-10 23:02N 45°47' W 122°47'0 8.1
2018-Aug-10 23:00N 45°47' W 122°47'6 8.3
2018-Aug-10 22:20N 45°42' W 122°46'3 8.8
2018-Aug-10 22:00N 45°39' W 122°45'1 1.1
2018-Aug-10 21:06N 45°39' W 122°44'0 0.0
2018-Aug-10 20:48N 45°39' W 122°44'0 0.0
2018-Aug-10 20:27N 45°39' W 122°44'0 0.0
2018-Aug-10 20:00N 45°39' W 122°44'0 0.0
2018-Aug-10 19:24N 45°39' W 122°44'0 0.0
2018-Aug-10 18:54N 45°39' W 122°44'0 0.0
2018-Aug-10 18:27N 45°39' W 122°44'1 1.3
2018-Aug-10 17:55N 45°39' W 122°45'3 5.9
2018-Aug-10 17:28N 45°41' W 122°46'3 6.1
2018-Aug-10 16:57N 45°44' W 122°46'3 6.1
2018-Aug-10 16:31N 45°47' W 122°47'3 5.8
2018-Aug-10 16:00N 45°50' W 122°47'1 2.1
2018-Aug-10 15:30N 45°51' W 122°48'3 5.1
2018-Aug-10 15:00N 45°48' W 122°49'1 2.2
2018-Aug-10 14:29N 45°48' W 122°51'0 0.1
2018-Aug-10 13:53N 45°48' W 122°51'0 0.0
2018-Aug-10 13:29N 45°48' W 122°51'0 0.0
2018-Aug-10 12:53N 45°48' W 122°51'0 0.0
2018-Aug-10 12:23N 45°48' W 122°51'0 0.0
2018-Aug-10 11:59N 45°48' W 122°51'0 0.0
2018-Aug-10 11:29N 45°48' W 122°51'0 0.0
2018-Aug-10 10:56N 45°48' W 122°51'0 0.0
2018-Aug-10 10:26N 45°48' W 122°51'0 0.0
2018-Aug-10 09:59N 45°48' W 122°51'0 0.0
2018-Aug-10 09:26N 45°48' W 122°51'0 0.0
2018-Aug-10 08:59N 45°48' W 122°51'0 0.0
2018-Aug-10 08:29N 45°48' W 122°51'0 0.0
2018-Aug-10 07:59N 45°48' W 122°51'0 0.0
2018-Aug-10 07:05N 45°48' W 122°51'0 0.0
2018-Aug-10 06:47N 45°48' W 122°51'0 0.0
2018-Aug-10 06:26N 45°48' W 122°51'1 1.3
2018-Aug-10 06:00N 45°48' W 122°50'2 4.9
2018-Aug-10 05:30N 45°50' W 122°48'1 1.5
2018-Aug-10 05:00N 45°50' W 122°47'5 9.2
2018-Aug-10 04:30N 45°45' W 122°46'6 9.2
2018-Aug-10 03:53N 45°40' W 122°46'2 5.0
2018-Aug-10 03:30N 45°39' W 122°44'0 0.0
2018-Aug-10 02:48N 45°39' W 122°44'0 0.0
2018-Aug-10 02:27N 45°39' W 122°44'0 0.0
2018-Aug-10 02:00N 45°39' W 122°44'0 0.0
2018-Aug-10 01:30N 45°39' W 122°44'0 0.0
2018-Aug-10 00:54N 45°39' W 122°44'0 0.0
2018-Aug-10 00:30N 45°39' W 122°44'0 0.0
2018-Aug-09 23:51N 45°39' W 122°44'0 0.0
2018-Aug-09 23:28N 45°39' W 122°44'2 5.5
2018-Aug-09 23:01N 45°40' W 122°46'4 7.4
2018-Aug-09 22:30N 45°44' W 122°46'4 7.2
2018-Aug-09 22:00N 45°48' W 122°47'4 7.1
2018-Aug-09 21:29N 45°51' W 122°47'1 1.1
2018-Aug-09 20:59N 45°51' W 122°48'3 6.1
2018-Aug-09 20:30N 45°48' W 122°49'1 2.0
2018-Aug-09 19:59N 45°48' W 122°51'0 0.2
2018-Aug-09 19:28N 45°48' W 122°51'0 0.0
2018-Aug-09 18:55N 45°48' W 122°51'0 0.0
2018-Aug-09 18:25N 45°48' W 122°51'0 0.0
2018-Aug-09 17:49N 45°48' W 122°51'0 0.0
2018-Aug-09 17:22N 45°48' W 122°51'0 0.0
2018-Aug-09 16:58N 45°48' W 122°51'0 0.0
2018-Aug-09 16:28N 45°48' W 122°51'0 0.0
2018-Aug-09 15:52N 45°48' W 122°51'0 0.0
2018-Aug-09 15:28N 45°48' W 122°51'0 0.0
2018-Aug-09 14:50N 45°48' W 122°51'0 0.1
2018-Aug-09 14:23N 45°48' W 122°51'1 3.1
2018-Aug-09 14:00N 45°48' W 122°49'3 6.4
2018-Aug-09 13:31N 45°51' W 122°48'4 7.6
2018-Aug-09 13:00N 45°48' W 122°47'4 9.0
2018-Aug-09 12:31N 45°43' W 122°46'4 8.5
2018-Aug-09 12:00N 45°39' W 122°45'1 2.1
2018-Aug-09 11:30N 45°39' W 122°44'0 0.0
2018-Aug-09 10:57N 45°39' W 122°44'0 0.0
2018-Aug-09 10:24N 45°39' W 122°44'0 0.0
2018-Aug-09 09:57N 45°39' W 122°44'0 0.0
2018-Aug-09 09:30N 45°39' W 122°44'0 0.0
2018-Aug-09 08:57N 45°39' W 122°44'0 0.0
2018-Aug-09 08:30N 45°39' W 122°44'0 0.0
2018-Aug-09 08:00N 45°39' W 122°44'0 0.0
2018-Aug-09 07:27N 45°39' W 122°44'0 0.0
2018-Aug-09 06:57N 45°39' W 122°44'0 0.0
2018-Aug-09 06:30N 45°39' W 122°44'2 4.8
2018-Aug-09 06:00N 45°40' W 122°46'3 6.4
2018-Aug-09 05:30N 45°43' W 122°46'4 6.2
2018-Aug-09 04:50N 45°48' W 122°47'2 6.0
2018-Aug-09 04:30N 45°50' W 122°48'3 5.9
2018-Aug-09 04:00N 45°52' W 122°48'3 5.1
2018-Aug-09 03:30N 45°50' W 122°49'2 3.7
2018-Aug-09 03:01N 45°48' W 122°50'1 1.5
2018-Aug-09 02:16N 45°48' W 122°51'1 2.9
2018-Aug-09 01:47N 45°49' W 122°50'2 6.9
2018-Aug-09 01:30N 45°50' W 122°48'2 3.2
2018-Aug-09 01:00N 45°49' W 122°48'5 9.3
2018-Aug-09 00:30N 45°44' W 122°46'5 9.1
2018-Aug-09 00:00N 45°40' W 122°46'2 3.3
2018-Aug-08 23:22N 45°39' W 122°44'0 0.0
2018-Aug-08 22:55N 45°39' W 122°44'0 0.0
2018-Aug-08 22:25N 45°39' W 122°44'0 0.0
2018-Aug-08 21:58N 45°39' W 122°44'0 0.0
2018-Aug-08 21:04N 45°39' W 122°44'0 0.0
2018-Aug-08 20:52N 45°39' W 122°44'0 0.0
2018-Aug-08 20:28N 45°39' W 122°44'0 0.0
2018-Aug-08 19:58N 45°39' W 122°44'0 0.1
2018-Aug-08 19:30N 45°39' W 122°43'3 5.4
2018-Aug-08 19:00N 45°41' W 122°46'4 6.6
2018-Aug-08 18:27N 45°44' W 122°46'3 6.5
2018-Aug-08 18:00N 45°47' W 122°47'3 6.0
2018-Aug-08 17:30N 45°50' W 122°47'3 5.5
2018-Aug-08 17:00N 45°53' W 122°48'3 6.7
2018-Aug-08 16:30N 45°49' W 122°49'2 4.1
2018-Aug-08 16:00N 45°48' W 122°50'0 0.5
2018-Aug-08 15:30N 45°48' W 122°51'0 0.2
2018-Aug-08 15:00N 45°48' W 122°51'2 4.4
2018-Aug-08 14:30N 45°49' W 122°49'2 3.1
2018-Aug-08 14:00N 45°50' W 122°47'5 9.3
2018-Aug-08 13:30N 45°46' W 122°46'5 9.4
2018-Aug-08 13:00N 45°41' W 122°46'4 8.0
2018-Aug-08 12:30N 45°37' W 122°47'4 7.9
2018-Aug-08 12:00N 45°34' W 122°44'0 0.5
2018-Aug-08 11:30N 45°34' W 122°44'0 0.0
2018-Aug-08 10:57N 45°34' W 122°44'0 0.0
2018-Aug-08 10:18N 45°34' W 122°44'0 0.0
2018-Aug-08 10:00N 45°34' W 122°44'0 0.0
2018-Aug-08 09:29N 45°34' W 122°44'0 0.0
2018-Aug-08 09:00N 45°34' W 122°44'0 0.0
2018-Aug-08 08:24N 45°34' W 122°44'0 0.0
2018-Aug-08 07:54N 45°34' W 122°44'0 0.0
2018-Aug-08 07:30N 45°34' W 122°44'0 0.0
2018-Aug-08 06:48N 45°34' W 122°44'0 0.3
2018-Aug-08 06:27N 45°34' W 122°44'3 6.1
2018-Aug-08 06:00N 45°36' W 122°47'3 6.3
2018-Aug-08 05:30N 45°39' W 122°46'3 5.9
2018-Aug-08 05:00N 45°42' W 122°46'3 5.7
2018-Aug-08 04:31N 45°45' W 122°46'3 5.7
2018-Aug-08 04:01N 45°48' W 122°47'3 5.4
2018-Aug-08 03:30N 45°50' W 122°47'2 5.0
2018-Aug-08 03:00N 45°53' W 122°48'3 6.3
2018-Aug-08 02:30N 45°50' W 122°49'2 4.0
2018-Aug-08 01:58N 45°48' W 122°50'0 0.6
2018-Aug-08 01:30N 45°48' W 122°51'0 0.0
2018-Aug-08 01:00N 45°48' W 122°51'0 0.1
2018-Aug-08 00:30N 45°48' W 122°51'0 0.0
2018-Aug-07 23:51N 45°48' W 122°51'0 0.0
2018-Aug-07 23:30N 45°48' W 122°51'0 0.0
2018-Aug-07 23:00N 45°48' W 122°51'0 0.0
2018-Aug-07 22:27N 45°48' W 122°51'0 0.0
2018-Aug-07 22:00N 45°48' W 122°51'0 0.0
2018-Aug-07 21:30N 45°48' W 122°51'0 0.0
2018-Aug-07 21:00N 45°48' W 122°51'0 0.0
2018-Aug-07 20:18N 45°48' W 122°51'0 0.0
2018-Aug-07 20:00N 45°48' W 122°51'0 0.1
2018-Aug-07 19:30N 45°48' W 122°51'1 2.2
2018-Aug-07 18:58N 45°48' W 122°49'0 0.3
2018-Aug-07 18:30N 45°48' W 122°49'3 6.7
2018-Aug-07 18:00N 45°52' W 122°48'2 3.3
2018-Aug-07 17:30N 45°50' W 122°47'5 9.6
2018-Aug-07 17:00N 45°45' W 122°46'5 9.9
2018-Aug-07 16:30N 45°40' W 122°46'4 7.9
2018-Aug-07 16:00N 45°36' W 122°47'3 6.8
2018-Aug-07 15:30N 45°34' W 122°44'0 0.1
2018-Aug-07 14:49N 45°34' W 122°44'0 0.0
2018-Aug-07 14:30N 45°34' W 122°44'0 0.0
2018-Aug-07 13:58N 45°34' W 122°44'0 0.0
2018-Aug-07 13:28N 45°34' W 122°44'0 0.0
2018-Aug-07 12:55N 45°34' W 122°44'0 0.0
2018-Aug-07 12:25N 45°34' W 122°44'0 0.0
2018-Aug-07 11:58N 45°34' W 122°44'0 0.0
2018-Aug-07 11:28N 45°34' W 122°44'0 0.0
2018-Aug-07 10:55N 45°34' W 122°44'0 0.0
2018-Aug-07 10:28N 45°34' W 122°44'0 0.0
2018-Aug-07 09:58N 45°34' W 122°44'0 0.4
2018-Aug-07 09:30N 45°34' W 122°44'3 6.0
2018-Aug-07 09:00N 45°36' W 122°47'3 6.4
2018-Aug-07 08:30N 45°39' W 122°46'3 6.6
2018-Aug-07 08:00N 45°43' W 122°46'4 7.1
2018-Aug-07 07:30N 45°46' W 122°46'4 7.2
2018-Aug-07 06:59N 45°50' W 122°47'1 2.0
2018-Aug-07 06:30N 45°51' W 122°48'3 5.1
2018-Aug-07 06:00N 45°48' W 122°50'1 2.0
2018-Aug-07 05:28N 45°48' W 122°51'0 0.1
2018-Aug-07 04:49N 45°48' W 122°51'0 0.0
2018-Aug-07 04:25N 45°48' W 122°51'0 0.0
2018-Aug-07 03:52N 45°48' W 122°51'0 0.0
2018-Aug-07 03:28N 45°48' W 122°51'0 0.0
2018-Aug-07 02:49N 45°48' W 122°51'0 0.0
2018-Aug-07 02:28N 45°48' W 122°51'0 0.1
2018-Aug-07 01:58N 45°48' W 122°51'1 2.9
2018-Aug-07 01:30N 45°49' W 122°50'4 6.1
2018-Aug-07 00:50N 45°53' W 122°48'3 9.4
2018-Aug-07 00:30N 45°50' W 122°48'5 9.7
2018-Aug-07 00:01N 45°45' W 122°46'612.7
2018-Aug-06 23:30N 45°39' W 122°44'0 0.1
2018-Aug-06 22:54N 45°39' W 122°44'0 0.0
2018-Aug-06 22:27N 45°39' W 122°44'0 0.0
2018-Aug-06 22:00N 45°39' W 122°44'0 0.0
2018-Aug-06 21:30N 45°39' W 122°44'0 0.0
2018-Aug-06 20:51N 45°39' W 122°44'0 0.0
2018-Aug-06 20:27N 45°39' W 122°44'0 0.0
2018-Aug-06 19:57N 45°39' W 122°44'0 0.0
2018-Aug-06 19:16N 45°39' W 122°44'0 0.0
2018-Aug-06 18:57N 45°39' W 122°44'0 0.0
2018-Aug-06 18:29N 45°39' W 122°44'2 3.3
2018-Aug-06 18:00N 45°39' W 122°46'3 6.2
2018-Aug-06 17:30N 45°43' W 122°46'7 6.0
2018-Aug-06 16:20N 45°50' W 122°48'3 5.8
2018-Aug-06 15:52N 45°52' W 122°47'1 3.0
2018-Aug-06 15:30N 45°51' W 122°48'3 6.0
2018-Aug-06 15:00N 45°48' W 122°49'1 2.3
2018-Aug-06 14:29N 45°48' W 122°51'0 0.0
2018-Aug-06 13:55N 45°48' W 122°51'0 0.1
2018-Aug-06 13:25N 45°48' W 122°51'0 0.0
2018-Aug-06 02:23N 45°48' W 122°51'0 0.0
2018-Aug-06 01:56N 45°48' W 122°51'0 0.1
2018-Aug-06 01:29N 45°48' W 122°51'1 2.8
2018-Aug-06 01:00N 45°49' W 122°50'3 6.3
2018-Aug-06 00:29N 45°52' W 122°48'1 2.5
2018-Aug-06 00:00N 45°51' W 122°47'4 8.5
2018-Aug-05 23:31N 45°46' W 122°46'5 8.3
2018-Aug-05 22:56N 45°42' W 122°46'3 6.3
2018-Aug-05 22:30N 45°39' W 122°45'4 8.6
2018-Aug-05 22:00N 45°37' W 122°40'4 8.8
2018-Aug-05 21:31N 45°36' W 122°34'5 8.8
2018-Aug-05 20:58N 45°34' W 122°27'1 0.4
2018-Aug-05 19:28N 45°34' W 122°27'0 0.0
2018-Aug-05 18:34N 45°34' W 122°27'0 0.0
2018-Aug-05 18:28N 45°34' W 122°27'0 0.0
2018-Aug-05 17:58N 45°34' W 122°27'0 0.0
2018-Aug-05 17:28N 45°34' W 122°27'0 0.0
2018-Aug-05 16:58N 45°34' W 122°27'0 0.6
2018-Aug-05 16:30N 45°34' W 122°27'2 3.5
2018-Aug-05 16:00N 45°35' W 122°29'2 3.7
2018-Aug-05 15:30N 45°35' W 122°32'2 3.6
2018-Aug-05 15:00N 45°36' W 122°34'2 3.9
2018-Aug-05 14:30N 45°36' W 122°37'4 4.0
2018-Aug-05 13:30N 45°38' W 122°42'2 4.7
2018-Aug-05 13:00N 45°39' W 122°45'2 4.6
2018-Aug-05 12:30N 45°41' W 122°46'2 4.7
2018-Aug-05 12:00N 45°43' W 122°46'2 4.7
2018-Aug-05 11:31N 45°46' W 122°46'2 4.7
2018-Aug-05 11:00N 45°48' W 122°47'2 4.5
2018-Aug-05 10:30N 45°50' W 122°47'2 4.5
2018-Aug-05 10:00N 45°52' W 122°47'2 3.9
2018-Aug-05 09:31N 45°50' W 122°48'3 5.1
2018-Aug-05 09:00N 45°48' W 122°50'1 1.9
2018-Aug-05 08:30N 45°48' W 122°51'0 0.2
2018-Aug-05 07:54N 45°48' W 122°51'0 0.0
2018-Aug-05 07:24N 45°48' W 122°51'0 0.0
2018-Aug-05 06:57N 45°48' W 122°51'0 0.0
2018-Aug-05 06:24N 45°48' W 122°51'0 0.0
2018-Aug-05 05:54N 45°48' W 122°51'0 0.0
2018-Aug-05 05:09N 45°48' W 122°51'0 0.0
2018-Aug-05 05:00N 45°48' W 122°51'0 0.4
2018-Aug-05 04:30N 45°48' W 122°50'4 5.6
2018-Aug-05 03:51N 45°51' W 122°48'1 2.4
2018-Aug-05 03:30N 45°50' W 122°47'4 6.8
2018-Aug-05 02:53N 45°46' W 122°46'4 7.6
2018-Aug-05 02:19N 45°42' W 122°46'2 7.8
2018-Aug-05 02:00N 45°39' W 122°46'3 6.6
2018-Aug-05 01:30N 45°36' W 122°47'3 5.9
2018-Aug-05 00:59N 45°34' W 122°44'0 0.1
2018-Aug-05 00:25N 45°34' W 122°44'0 0.0
2018-Aug-04 23:49N 45°34' W 122°44'0 0.0
2018-Aug-04 23:28N 45°34' W 122°44'0 0.0
2018-Aug-04 22:52N 45°34' W 122°44'0 0.0
2018-Aug-04 22:28N 45°34' W 122°44'0 0.0
2018-Aug-04 21:55N 45°34' W 122°44'0 0.0
2018-Aug-04 21:25N 45°34' W 122°44'0 0.0
2018-Aug-04 20:55N 45°34' W 122°44'0 0.0
2018-Aug-04 20:28N 45°34' W 122°44'0 0.3
2018-Aug-04 20:00N 45°34' W 122°44'3 5.2
2018-Aug-04 19:24N 45°36' W 122°47'2 4.7
2018-Aug-04 18:56N 45°38' W 122°49'2 4.8
2018-Aug-04 18:30N 45°40' W 122°51'2 4.6
2018-Aug-04 18:00N 45°42' W 122°52'2 4.8
2018-Aug-04 17:30N 45°44' W 122°51'2 4.3
2018-Aug-04 16:58N 45°46' W 122°49'2 5.0
2018-Aug-04 16:30N 45°48' W 122°48'2 1.9
2018-Aug-04 15:30N 45°48' W 122°51'0 0.1
2018-Aug-04 14:51N 45°48' W 122°51'0 0.0
2018-Aug-04 14:30N 45°48' W 122°51'0 0.0
2018-Aug-04 14:00N 45°48' W 122°51'0 0.0
2018-Aug-04 13:30N 45°48' W 122°51'0 0.0
2018-Aug-04 12:57N 45°48' W 122°51'0 0.0
2018-Aug-04 12:27N 45°48' W 122°51'0 0.0
2018-Aug-04 11:51N 45°48' W 122°51'0 0.0
2018-Aug-04 11:21N 45°48' W 122°51'0 0.0
2018-Aug-04 10:57N 45°48' W 122°51'0 0.0
2018-Aug-04 10:30N 45°48' W 122°51'0 0.1
2018-Aug-04 09:57N 45°48' W 122°51'1 2.4
2018-Aug-04 09:30N 45°48' W 122°50'4 3.5
2018-Aug-04 08:26N 45°46' W 122°46'1 2.2
2018-Aug-04 08:00N 45°45' W 122°46'4 7.9
2018-Aug-04 07:28N 45°40' W 122°46'4 6.9
2018-Aug-04 06:56N 45°37' W 122°47'3 6.9
2018-Aug-04 06:30N 45°34' W 122°45'1 1.5
2018-Aug-04 05:53N 45°34' W 122°44'0 0.4
2018-Aug-04 05:30N 45°34' W 122°44'0 0.0
2018-Aug-04 05:00N 45°34' W 122°44'0 0.0
2018-Aug-04 04:27N 45°34' W 122°44'0 0.0
2018-Aug-04 03:45N 45°34' W 122°44'0 0.0
2018-Aug-04 03:21N 45°34' W 122°44'0 0.0
2018-Aug-04 02:57N 45°34' W 122°44'0 0.0
2018-Aug-04 02:30N 45°34' W 122°44'0 0.0
2018-Aug-04 01:11N 45°34' W 122°44'0 0.0
2018-Aug-04 00:59N 45°34' W 122°44'0 0.2
2018-Aug-04 00:25N 45°34' W 122°44'2 3.9
2018-Aug-04 00:00N 45°35' W 122°46'3 5.6
2018-Aug-03 23:30N 45°37' W 122°48'3 5.1
2018-Aug-03 23:00N 45°39' W 122°50'2 4.7
2018-Aug-03 22:30N 45°41' W 122°52'2 4.6
2018-Aug-03 22:00N 45°44' W 122°52'2 4.1
2018-Aug-03 21:31N 45°45' W 122°49'2 3.7
2018-Aug-03 21:00N 45°47' W 122°49'2 3.2
2018-Aug-03 20:30N 45°48' W 122°49'1 1.7
2018-Aug-03 19:47N 45°48' W 122°51'0 0.2
2018-Aug-03 19:22N 45°48' W 122°51'0 0.0
2018-Aug-03 18:46N 45°48' W 122°51'0 0.0
2018-Aug-03 18:28N 45°48' W 122°51'0 0.0
2018-Aug-03 17:58N 45°48' W 122°51'0 0.0
2018-Aug-03 17:28N 45°48' W 122°51'0 0.0
2018-Aug-03 16:47N 45°48' W 122°51'0 0.0
2018-Aug-03 16:28N 45°48' W 122°51'0 0.0
2018-Aug-03 15:58N 45°48' W 122°51'1 1.4
2018-Aug-03 15:30N 45°48' W 122°50'3 5.9
2018-Aug-03 15:01N 45°51' W 122°48'2 3.1
2018-Aug-03 14:30N 45°49' W 122°48'4 8.1
2018-Aug-03 14:00N 45°45' W 122°46'4 7.0
2018-Aug-03 13:30N 45°42' W 122°46'3 6.3
2018-Aug-03 13:00N 45°39' W 122°45'4 7.7
2018-Aug-03 12:29N 45°37' W 122°40'3 5.5
2018-Aug-03 12:00N 45°36' W 122°36'5 9.1
2018-Aug-03 11:28N 45°35' W 122°29'2 3.1
2018-Aug-03 10:49N 45°34' W 122°27'0 0.0
2018-Aug-03 10:28N 45°34' W 122°27'0 0.0
2018-Aug-03 09:55N 45°34' W 122°27'0 0.0
2018-Aug-03 09:22N 45°34' W 122°27'0 0.0
2018-Aug-03 08:19N 45°34' W 122°27'0 0.0
2018-Aug-03 07:55N 45°34' W 122°27'0 0.0
2018-Aug-03 07:19N 45°34' W 122°27'0 0.0
2018-Aug-03 06:55N 45°34' W 122°27'0 0.0
2018-Aug-03 06:19N 45°34' W 122°27'0 0.0
2018-Aug-03 05:55N 45°34' W 122°27'0 0.3
2018-Aug-03 05:29N 45°34' W 122°27'2 4.0
2018-Aug-03 04:57N 45°35' W 122°29'2 4.6
2018-Aug-03 04:29N 45°36' W 122°32'2 4.7
2018-Aug-03 04:01N 45°36' W 122°35'2 4.9
2018-Aug-03 03:30N 45°37' W 122°39'2 4.9
2018-Aug-03 03:00N 45°38' W 122°42'  

Dump ship's entire track history